sensor_id;sensor_type;location;lat;lon;timestamp;temperature;humidity
62573;DHT22;48626;51.678;5.806;2023-07-02T00:01:42;18.70;99.90
62573;DHT22;48626;51.678;5.806;2023-07-02T00:04:08;18.80;99.90
62573;DHT22;48626;51.678;5.806;2023-07-02T00:06:35;18.70;99.90
62573;DHT22;48626;51.678;5.806;2023-07-02T00:09:06;18.70;99.90
62573;DHT22;48626;51.678;5.806;2023-07-02T00:11:32;18.60;99.90
62573;DHT22;48626;51.678;5.806;2023-07-02T00:13:58;18.60;99.90
62573;DHT22;48626;51.678;5.806;2023-07-02T00:16:23;18.60;99.90
62573;DHT22;48626;51.678;5.806;2023-07-02T00:18:49;18.60;99.90
62573;DHT22;48626;51.678;5.806;2023-07-02T00:21:18;18.60;99.90
62573;DHT22;48626;51.678;5.806;2023-07-02T00:23:45;18.60;99.90
62573;DHT22;48626;51.678;5.806;2023-07-02T00:26:10;18.60;99.90
62573;DHT22;48626;51.678;5.806;2023-07-02T00:28:36;18.60;99.90
62573;DHT22;48626;51.678;5.806;2023-07-02T00:31:02;18.50;99.90
62573;DHT22;48626;51.678;5.806;2023-07-02T00:33:27;18.50;99.90
62573;DHT22;48626;51.678;5.806;2023-07-02T00:35:54;18.40;99.90
62573;DHT22;48626;51.678;5.806;2023-07-02T00:38:21;18.40;99.90
62573;DHT22;48626;51.678;5.806;2023-07-02T00:40:46;18.40;99.90
62573;DHT22;48626;51.678;5.806;2023-07-02T00:43:12;18.40;99.90
62573;DHT22;48626;51.678;5.806;2023-07-02T00:45:39;18.40;99.90
62573;DHT22;48626;51.678;5.806;2023-07-02T00:48:05;18.40;99.90
62573;DHT22;48626;51.678;5.806;2023-07-02T00:50:31;18.40;99.90
62573;DHT22;48626;51.678;5.806;2023-07-02T00:52:58;18.40;99.90
62573;DHT22;48626;51.678;5.806;2023-07-02T00:55:24;18.40;99.90
62573;DHT22;48626;51.678;5.806;2023-07-02T00:57:49;18.40;99.90
62573;DHT22;48626;51.678;5.806;2023-07-02T01:00:15;18.40;99.90
62573;DHT22;48626;51.678;5.806;2023-07-02T01:02:41;18.40;99.90
62573;DHT22;48626;51.678;5.806;2023-07-02T01:05:19;18.40;99.90
62573;DHT22;48626;51.678;5.806;2023-07-02T01:07:47;18.40;99.90
62573;DHT22;48626;51.678;5.806;2023-07-02T01:10:12;18.40;99.90
62573;DHT22;48626;51.678;5.806;2023-07-02T01:12:38;18.40;99.90
62573;DHT22;48626;51.678;5.806;2023-07-02T01:15:05;18.40;99.90
62573;DHT22;48626;51.678;5.806;2023-07-02T01:17:32;18.40;99.90
62573;DHT22;48626;51.678;5.806;2023-07-02T01:20:03;18.40;99.90
62573;DHT22;48626;51.678;5.806;2023-07-02T01:22:30;18.30;99.90
62573;DHT22;48626;51.678;5.806;2023-07-02T01:24:57;18.30;99.90
62573;DHT22;48626;51.678;5.806;2023-07-02T01:27:23;18.30;99.90
62573;DHT22;48626;51.678;5.806;2023-07-02T01:29:52;18.30;99.90
62573;DHT22;48626;51.678;5.806;2023-07-02T01:32:18;18.30;99.90
62573;DHT22;48626;51.678;5.806;2023-07-02T01:34:44;18.30;99.90
62573;DHT22;48626;51.678;5.806;2023-07-02T01:37:14;18.20;99.90
62573;DHT22;48626;51.678;5.806;2023-07-02T01:39:40;18.20;99.90
62573;DHT22;48626;51.678;5.806;2023-07-02T01:44:35;18.20;99.90
62573;DHT22;48626;51.678;5.806;2023-07-02T01:47:01;18.20;99.90
62573;DHT22;48626;51.678;5.806;2023-07-02T01:49:27;18.20;99.90
62573;DHT22;48626;51.678;5.806;2023-07-02T01:51:53;18.20;99.90
62573;DHT22;48626;51.678;5.806;2023-07-02T01:54:21;18.20;99.90
62573;DHT22;48626;51.678;5.806;2023-07-02T01:56:47;18.10;99.90
62573;DHT22;48626;51.678;5.806;2023-07-02T01:59:13;18.10;99.90
62573;DHT22;48626;51.678;5.806;2023-07-02T02:01:39;18.00;99.90
62573;DHT22;48626;51.678;5.806;2023-07-02T02:04:08;18.00;99.90
62573;DHT22;48626;51.678;5.806;2023-07-02T02:06:34;18.00;99.90
62573;DHT22;48626;51.678;5.806;2023-07-02T02:09:00;17.80;99.90
62573;DHT22;48626;51.678;5.806;2023-07-02T02:11:25;17.70;99.90
62573;DHT22;48626;51.678;5.806;2023-07-02T02:13:52;17.60;99.90
62573;DHT22;48626;51.678;5.806;2023-07-02T02:16:17;17.50;99.90
62573;DHT22;48626;51.678;5.806;2023-07-02T02:18:43;17.40;99.90
62573;DHT22;48626;51.678;5.806;2023-07-02T02:21:09;17.30;99.90
62573;DHT22;48626;51.678;5.806;2023-07-02T02:23:34;17.20;99.90
62573;DHT22;48626;51.678;5.806;2023-07-02T02:26:00;17.10;99.90
62573;DHT22;48626;51.678;5.806;2023-07-02T02:28:26;17.10;99.90
62573;DHT22;48626;51.678;5.806;2023-07-02T02:30:51;17.00;99.90
62573;DHT22;48626;51.678;5.806;2023-07-02T02:33:17;17.00;99.90
62573;DHT22;48626;51.678;5.806;2023-07-02T02:35:43;17.00;99.90
62573;DHT22;48626;51.678;5.806;2023-07-02T02:38:08;17.00;99.90
62573;DHT22;48626;51.678;5.806;2023-07-02T02:40:34;16.90;99.90
62573;DHT22;48626;51.678;5.806;2023-07-02T02:43:00;16.90;99.90
62573;DHT22;48626;51.678;5.806;2023-07-02T02:45:25;16.90;99.90
62573;DHT22;48626;51.678;5.806;2023-07-02T02:47:51;16.90;99.90
62573;DHT22;48626;51.678;5.806;2023-07-02T02:50:17;16.90;99.90
62573;DHT22;48626;51.678;5.806;2023-07-02T02:52:42;16.80;99.90
62573;DHT22;48626;51.678;5.806;2023-07-02T02:55:09;16.90;99.90
62573;DHT22;48626;51.678;5.806;2023-07-02T02:57:36;16.90;99.90
62573;DHT22;48626;51.678;5.806;2023-07-02T03:00:01;16.90;99.90
62573;DHT22;48626;51.678;5.806;2023-07-02T03:02:28;17.00;99.90
62573;DHT22;48626;51.678;5.806;2023-07-02T03:04:53;17.00;99.90
62573;DHT22;48626;51.678;5.806;2023-07-02T03:07:19;17.00;99.90
62573;DHT22;48626;51.678;5.806;2023-07-02T03:09:45;17.00;99.90
62573;DHT22;48626;51.678;5.806;2023-07-02T03:12:10;17.00;99.90
62573;DHT22;48626;51.678;5.806;2023-07-02T03:14:36;16.90;99.90
62573;DHT22;48626;51.678;5.806;2023-07-02T03:17:02;16.90;99.90
62573;DHT22;48626;51.678;5.806;2023-07-02T03:19:28;16.80;99.90
62573;DHT22;48626;51.678;5.806;2023-07-02T03:21:54;16.80;99.90
62573;DHT22;48626;51.678;5.806;2023-07-02T03:24:19;16.70;99.90
62573;DHT22;48626;51.678;5.806;2023-07-02T03:26:45;16.70;99.90
62573;DHT22;48626;51.678;5.806;2023-07-02T03:29:11;16.80;99.90
62573;DHT22;48626;51.678;5.806;2023-07-02T03:31:37;16.90;99.90
62573;DHT22;48626;51.678;5.806;2023-07-02T03:34:06;16.90;99.90
62573;DHT22;48626;51.678;5.806;2023-07-02T03:36:32;16.90;99.90
62573;DHT22;48626;51.678;5.806;2023-07-02T03:38:58;16.90;99.90
62573;DHT22;48626;51.678;5.806;2023-07-02T03:41:24;16.90;99.90
62573;DHT22;48626;51.678;5.806;2023-07-02T03:43:50;16.80;99.90
62573;DHT22;48626;51.678;5.806;2023-07-02T03:46:16;16.80;99.90
62573;DHT22;48626;51.678;5.806;2023-07-02T03:48:41;16.70;99.90
62573;DHT22;48626;51.678;5.806;2023-07-02T03:51:07;16.70;99.90
62573;DHT22;48626;51.678;5.806;2023-07-02T03:53:33;16.60;99.90
62573;DHT22;48626;51.678;5.806;2023-07-02T03:55:59;16.50;99.90
62573;DHT22;48626;51.678;5.806;2023-07-02T03:58:25;16.50;99.90
62573;DHT22;48626;51.678;5.806;2023-07-02T04:00:51;16.50;99.90
62573;DHT22;48626;51.678;5.806;2023-07-02T04:03:17;16.40;99.90
62573;DHT22;48626;51.678;5.806;2023-07-02T04:05:43;16.40;99.90
62573;DHT22;48626;51.678;5.806;2023-07-02T04:08:09;16.40;99.90
62573;DHT22;48626;51.678;5.806;2023-07-02T04:10:35;16.40;99.90
62573;DHT22;48626;51.678;5.806;2023-07-02T04:13:00;16.40;99.90
62573;DHT22;48626;51.678;5.806;2023-07-02T04:15:26;16.40;99.90
62573;DHT22;48626;51.678;5.806;2023-07-02T04:17:52;16.40;99.90
62573;DHT22;48626;51.678;5.806;2023-07-02T04:20:19;16.30;99.90
62573;DHT22;48626;51.678;5.806;2023-07-02T04:22:47;16.30;99.90
62573;DHT22;48626;51.678;5.806;2023-07-02T04:25:14;16.40;99.90
62573;DHT22;48626;51.678;5.806;2023-07-02T04:27:43;16.30;99.90
62573;DHT22;48626;51.678;5.806;2023-07-02T04:30:10;16.30;99.90
62573;DHT22;48626;51.678;5.806;2023-07-02T04:32:37;16.20;99.90
62573;DHT22;48626;51.678;5.806;2023-07-02T04:35:05;16.20;99.90
62573;DHT22;48626;51.678;5.806;2023-07-02T04:37:31;16.20;99.90
62573;DHT22;48626;51.678;5.806;2023-07-02T04:39:57;16.10;99.90
62573;DHT22;48626;51.678;5.806;2023-07-02T04:42:23;16.10;99.90
62573;DHT22;48626;51.678;5.806;2023-07-02T04:44:53;16.10;99.90
62573;DHT22;48626;51.678;5.806;2023-07-02T04:47:19;16.20;99.90
62573;DHT22;48626;51.678;5.806;2023-07-02T04:49:45;16.20;99.90
62573;DHT22;48626;51.678;5.806;2023-07-02T04:52:11;16.20;99.90
62573;DHT22;48626;51.678;5.806;2023-07-02T04:54:36;16.20;99.90
62573;DHT22;48626;51.678;5.806;2023-07-02T04:57:02;16.30;99.90
62573;DHT22;48626;51.678;5.806;2023-07-02T04:59:28;16.30;99.90
62573;DHT22;48626;51.678;5.806;2023-07-02T05:01:54;16.40;99.90
62573;DHT22;48626;51.678;5.806;2023-07-02T05:04:19;16.30;99.90
62573;DHT22;48626;51.678;5.806;2023-07-02T05:06:45;16.40;99.90
62573;DHT22;48626;51.678;5.806;2023-07-02T05:09:11;16.40;99.90
62573;DHT22;48626;51.678;5.806;2023-07-02T05:11:36;16.50;99.90
62573;DHT22;48626;51.678;5.806;2023-07-02T05:14:02;16.60;99.90
62573;DHT22;48626;51.678;5.806;2023-07-02T05:16:28;16.70;99.90
62573;DHT22;48626;51.678;5.806;2023-07-02T05:18:54;16.80;99.90
62573;DHT22;48626;51.678;5.806;2023-07-02T05:21:20;16.80;99.90
62573;DHT22;48626;51.678;5.806;2023-07-02T05:23:47;16.90;99.90
62573;DHT22;48626;51.678;5.806;2023-07-02T05:26:13;16.90;99.90
62573;DHT22;48626;51.678;5.806;2023-07-02T05:28:38;16.90;99.90
62573;DHT22;48626;51.678;5.806;2023-07-02T05:31:04;17.00;99.90
62573;DHT22;48626;51.678;5.806;2023-07-02T05:33:30;17.00;99.90
62573;DHT22;48626;51.678;5.806;2023-07-02T05:35:57;17.10;99.90
62573;DHT22;48626;51.678;5.806;2023-07-02T05:38:23;17.10;99.90
62573;DHT22;48626;51.678;5.806;2023-07-02T05:40:50;17.20;99.90
62573;DHT22;48626;51.678;5.806;2023-07-02T05:43:15;17.40;99.90
62573;DHT22;48626;51.678;5.806;2023-07-02T05:45:41;17.50;99.90
62573;DHT22;48626;51.678;5.806;2023-07-02T05:48:07;17.50;99.90
62573;DHT22;48626;51.678;5.806;2023-07-02T05:50:33;17.60;99.90
62573;DHT22;48626;51.678;5.806;2023-07-02T05:52:59;17.60;99.90
62573;DHT22;48626;51.678;5.806;2023-07-02T05:55:24;17.60;99.90
62573;DHT22;48626;51.678;5.806;2023-07-02T05:57:50;17.60;99.90
62573;DHT22;48626;51.678;5.806;2023-07-02T06:00:16;17.70;99.90
62573;DHT22;48626;51.678;5.806;2023-07-02T06:02:42;17.70;99.90
62573;DHT22;48626;51.678;5.806;2023-07-02T06:05:08;17.70;99.90
62573;DHT22;48626;51.678;5.806;2023-07-02T06:07:33;17.80;99.90
62573;DHT22;48626;51.678;5.806;2023-07-02T06:09:59;17.90;99.90
62573;DHT22;48626;51.678;5.806;2023-07-02T06:12:25;18.00;99.90
62573;DHT22;48626;51.678;5.806;2023-07-02T06:14:50;18.00;99.90
62573;DHT22;48626;51.678;5.806;2023-07-02T06:17:16;18.10;99.90
62573;DHT22;48626;51.678;5.806;2023-07-02T06:19:44;18.10;99.90
62573;DHT22;48626;51.678;5.806;2023-07-02T06:22:09;18.10;99.90
62573;DHT22;48626;51.678;5.806;2023-07-02T06:24:35;18.10;99.90
62573;DHT22;48626;51.678;5.806;2023-07-02T06:27:01;18.20;99.90
62573;DHT22;48626;51.678;5.806;2023-07-02T06:29:27;18.20;99.90
62573;DHT22;48626;51.678;5.806;2023-07-02T06:31:54;18.30;99.90
62573;DHT22;48626;51.678;5.806;2023-07-02T06:34:20;18.40;99.90
62573;DHT22;48626;51.678;5.806;2023-07-02T06:36:45;18.50;99.90
62573;DHT22;48626;51.678;5.806;2023-07-02T06:39:11;18.60;99.90
62573;DHT22;48626;51.678;5.806;2023-07-02T06:41:37;18.70;99.90
62573;DHT22;48626;51.678;5.806;2023-07-02T06:44:03;18.80;99.90
62573;DHT22;48626;51.678;5.806;2023-07-02T06:46:29;18.90;99.90
62573;DHT22;48626;51.678;5.806;2023-07-02T06:48:55;18.90;99.90
62573;DHT22;48626;51.678;5.806;2023-07-02T06:51:21;19.00;99.90
62573;DHT22;48626;51.678;5.806;2023-07-02T06:53:47;19.10;99.90
62573;DHT22;48626;51.678;5.806;2023-07-02T06:56:13;19.10;99.90
62573;DHT22;48626;51.678;5.806;2023-07-02T06:58:42;19.20;99.90
62573;DHT22;48626;51.678;5.806;2023-07-02T07:01:09;19.20;99.90
62573;DHT22;48626;51.678;5.806;2023-07-02T07:03:35;19.20;99.90
62573;DHT22;48626;51.678;5.806;2023-07-02T07:06:01;19.30;99.90
62573;DHT22;48626;51.678;5.806;2023-07-02T07:08:27;19.30;99.90
62573;DHT22;48626;51.678;5.806;2023-07-02T07:10:52;19.30;99.90
62573;DHT22;48626;51.678;5.806;2023-07-02T07:13:18;19.40;99.90
62573;DHT22;48626;51.678;5.806;2023-07-02T07:15:44;19.50;99.90
62573;DHT22;48626;51.678;5.806;2023-07-02T07:18:10;19.60;99.90
62573;DHT22;48626;51.678;5.806;2023-07-02T07:20:36;19.70;99.90
62573;DHT22;48626;51.678;5.806;2023-07-02T07:23:02;19.80;99.90
62573;DHT22;48626;51.678;5.806;2023-07-02T07:25:28;19.80;99.90
62573;DHT22;48626;51.678;5.806;2023-07-02T07:27:54;19.90;99.90
62573;DHT22;48626;51.678;5.806;2023-07-02T07:30:20;19.90;99.90
62573;DHT22;48626;51.678;5.806;2023-07-02T07:32:51;20.00;99.90
62573;DHT22;48626;51.678;5.806;2023-07-02T07:35:19;20.10;99.90
62573;DHT22;48626;51.678;5.806;2023-07-02T07:37:45;20.20;99.90
62573;DHT22;48626;51.678;5.806;2023-07-02T07:40:12;20.20;99.90
62573;DHT22;48626;51.678;5.806;2023-07-02T07:42:37;20.30;99.90
62573;DHT22;48626;51.678;5.806;2023-07-02T07:45:03;20.40;99.90
62573;DHT22;48626;51.678;5.806;2023-07-02T07:47:29;20.50;99.90
62573;DHT22;48626;51.678;5.806;2023-07-02T07:49:55;20.60;99.90
62573;DHT22;48626;51.678;5.806;2023-07-02T07:52:21;20.70;99.90
62573;DHT22;48626;51.678;5.806;2023-07-02T07:54:46;20.70;99.90
62573;DHT22;48626;51.678;5.806;2023-07-02T07:57:12;20.80;99.90
62573;DHT22;48626;51.678;5.806;2023-07-02T07:59:38;20.80;99.90
62573;DHT22;48626;51.678;5.806;2023-07-02T08:02:04;20.90;99.90
62573;DHT22;48626;51.678;5.806;2023-07-02T08:04:29;20.90;99.90
62573;DHT22;48626;51.678;5.806;2023-07-02T08:06:55;21.00;99.90
62573;DHT22;48626;51.678;5.806;2023-07-02T08:09:24;21.00;99.90
62573;DHT22;48626;51.678;5.806;2023-07-02T08:11:50;21.10;99.90
62573;DHT22;48626;51.678;5.806;2023-07-02T08:14:19;21.10;99.90
62573;DHT22;48626;51.678;5.806;2023-07-02T08:16:44;21.20;99.90
62573;DHT22;48626;51.678;5.806;2023-07-02T08:19:10;21.30;99.90
62573;DHT22;48626;51.678;5.806;2023-07-02T08:21:36;21.30;99.90
62573;DHT22;48626;51.678;5.806;2023-07-02T08:24:03;21.20;99.90
62573;DHT22;48626;51.678;5.806;2023-07-02T08:26:29;21.10;99.90
62573;DHT22;48626;51.678;5.806;2023-07-02T08:28:54;21.10;99.90
62573;DHT22;48626;51.678;5.806;2023-07-02T08:31:20;21.10;99.90
62573;DHT22;48626;51.678;5.806;2023-07-02T08:33:46;21.20;99.90
62573;DHT22;48626;51.678;5.806;2023-07-02T08:36:11;21.20;99.90
62573;DHT22;48626;51.678;5.806;2023-07-02T08:38:39;21.20;99.90
62573;DHT22;48626;51.678;5.806;2023-07-02T08:41:07;21.30;99.90
62573;DHT22;48626;51.678;5.806;2023-07-02T08:43:34;21.40;99.90
62573;DHT22;48626;51.678;5.806;2023-07-02T08:46:01;21.40;99.90
62573;DHT22;48626;51.678;5.806;2023-07-02T08:48:27;21.50;99.90
62573;DHT22;48626;51.678;5.806;2023-07-02T08:50:55;21.50;99.90
62573;DHT22;48626;51.678;5.806;2023-07-02T08:53:21;21.50;99.90
62573;DHT22;48626;51.678;5.806;2023-07-02T08:55:55;21.80;99.90
62573;DHT22;48626;51.678;5.806;2023-07-02T08:58:20;22.00;99.90
62573;DHT22;48626;51.678;5.806;2023-07-02T09:01:07;22.00;99.90
62573;DHT22;48626;51.678;5.806;2023-07-02T09:03:33;22.10;99.90
62573;DHT22;48626;51.678;5.806;2023-07-02T09:05:59;21.90;99.90
62573;DHT22;48626;51.678;5.806;2023-07-02T09:08:28;21.90;99.90
62573;DHT22;48626;51.678;5.806;2023-07-02T09:11:10;21.90;99.90
62573;DHT22;48626;51.678;5.806;2023-07-02T09:13:53;22.00;99.90
62573;DHT22;48626;51.678;5.806;2023-07-02T09:16:31;21.90;99.90
62573;DHT22;48626;51.678;5.806;2023-07-02T09:21:37;21.80;99.90
62573;DHT22;48626;51.678;5.806;2023-07-02T09:24:12;21.70;99.90
62573;DHT22;48626;51.678;5.806;2023-07-02T09:26:51;21.50;99.90
62573;DHT22;48626;51.678;5.806;2023-07-02T09:31:48;21.70;99.90
62573;DHT22;48626;51.678;5.806;2023-07-02T09:34:14;21.90;99.90
62573;DHT22;48626;51.678;5.806;2023-07-02T09:36:59;22.40;99.90
62573;DHT22;48626;51.678;5.806;2023-07-02T09:39:38;22.60;99.90
62573;DHT22;48626;51.678;5.806;2023-07-02T09:42:08;22.70;99.90
62573;DHT22;48626;51.678;5.806;2023-07-02T09:44:44;22.50;99.90
62573;DHT22;48626;51.678;5.806;2023-07-02T09:47:10;22.50;99.90
62573;DHT22;48626;51.678;5.806;2023-07-02T09:49:45;22.60;99.90
62573;DHT22;48626;51.678;5.806;2023-07-02T09:52:14;22.70;99.90
62573;DHT22;48626;51.678;5.806;2023-07-02T09:54:41;23.00;99.90
62573;DHT22;48626;51.678;5.806;2023-07-02T09:57:07;23.20;99.90
62573;DHT22;48626;51.678;5.806;2023-07-02T09:59:33;23.20;99.90
62573;DHT22;48626;51.678;5.806;2023-07-02T10:01:59;23.20;99.90
62573;DHT22;48626;51.678;5.806;2023-07-02T10:04:25;23.20;99.90
62573;DHT22;48626;51.678;5.806;2023-07-02T10:06:53;23.40;99.90
62573;DHT22;48626;51.678;5.806;2023-07-02T10:09:21;23.60;99.90
62573;DHT22;48626;51.678;5.806;2023-07-02T10:11:47;23.70;99.90
62573;DHT22;48626;51.678;5.806;2023-07-02T10:14:13;23.70;99.90
62573;DHT22;48626;51.678;5.806;2023-07-02T10:16:52;23.90;99.90
62573;DHT22;48626;51.678;5.806;2023-07-02T10:19:19;24.10;99.90
62573;DHT22;48626;51.678;5.806;2023-07-02T10:21:45;24.20;99.90
62573;DHT22;48626;51.678;5.806;2023-07-02T10:24:16;24.30;99.90
62573;DHT22;48626;51.678;5.806;2023-07-02T10:26:55;24.20;99.90
62573;DHT22;48626;51.678;5.806;2023-07-02T10:29:23;24.00;99.90
62573;DHT22;48626;51.678;5.806;2023-07-02T10:31:50;24.10;99.90
62573;DHT22;48626;51.678;5.806;2023-07-02T10:34:16;24.30;99.90
62573;DHT22;48626;51.678;5.806;2023-07-02T10:36:56;24.40;99.90
62573;DHT22;48626;51.678;5.806;2023-07-02T10:39:22;24.60;99.90
62573;DHT22;48626;51.678;5.806;2023-07-02T10:41:48;24.80;99.90
62573;DHT22;48626;51.678;5.806;2023-07-02T10:44:14;25.20;99.90
62573;DHT22;48626;51.678;5.806;2023-07-02T10:46:48;25.40;99.90
62573;DHT22;48626;51.678;5.806;2023-07-02T10:49:16;25.40;99.90
62573;DHT22;48626;51.678;5.806;2023-07-02T10:51:42;25.60;99.90
62573;DHT22;48626;51.678;5.806;2023-07-02T10:54:08;25.50;99.90
62573;DHT22;48626;51.678;5.806;2023-07-02T10:56:34;25.40;99.90
62573;DHT22;48626;51.678;5.806;2023-07-02T10:59:00;25.20;99.90
62573;DHT22;48626;51.678;5.806;2023-07-02T11:01:28;25.00;99.90
62573;DHT22;48626;51.678;5.806;2023-07-02T11:04:04;24.90;99.90
62573;DHT22;48626;51.678;5.806;2023-07-02T11:06:31;24.90;99.90
62573;DHT22;48626;51.678;5.806;2023-07-02T11:09:00;25.20;99.90
62573;DHT22;48626;51.678;5.806;2023-07-02T11:11:26;25.40;99.90
62573;DHT22;48626;51.678;5.806;2023-07-02T11:13:53;25.80;99.90
62573;DHT22;48626;51.678;5.806;2023-07-02T11:16:25;26.00;99.90
62573;DHT22;48626;51.678;5.806;2023-07-02T11:19:09;25.70;99.90
62573;DHT22;48626;51.678;5.806;2023-07-02T11:21:35;25.50;99.90
62573;DHT22;48626;51.678;5.806;2023-07-02T11:24:05;25.30;99.90
62573;DHT22;48626;51.678;5.806;2023-07-02T11:26:39;25.30;99.90
62573;DHT22;48626;51.678;5.806;2023-07-02T11:29:11;25.10;99.90
62573;DHT22;48626;51.678;5.806;2023-07-02T11:31:37;24.90;99.90
62573;DHT22;48626;51.678;5.806;2023-07-02T11:34:13;24.90;99.90
62573;DHT22;48626;51.678;5.806;2023-07-02T11:36:39;24.80;99.90
62573;DHT22;48626;51.678;5.806;2023-07-02T11:39:05;24.50;99.90
62573;DHT22;48626;51.678;5.806;2023-07-02T11:41:42;24.40;99.90
62573;DHT22;48626;51.678;5.806;2023-07-02T11:44:08;24.10;99.90
62573;DHT22;48626;51.678;5.806;2023-07-02T11:46:34;24.10;99.90
62573;DHT22;48626;51.678;5.806;2023-07-02T11:49:00;24.70;99.90
62573;DHT22;48626;51.678;5.806;2023-07-02T11:51:26;25.60;99.90
62573;DHT22;48626;51.678;5.806;2023-07-02T11:53:52;26.20;99.90
62573;DHT22;48626;51.678;5.806;2023-07-02T11:56:18;26.70;99.90
62573;DHT22;48626;51.678;5.806;2023-07-02T11:58:43;27.00;99.90
62573;DHT22;48626;51.678;5.806;2023-07-02T12:01:09;27.60;99.90
62573;DHT22;48626;51.678;5.806;2023-07-02T12:03:34;28.00;99.90
62573;DHT22;48626;51.678;5.806;2023-07-02T12:06:00;28.40;99.90
62573;DHT22;48626;51.678;5.806;2023-07-02T12:08:26;29.10;99.90
62573;DHT22;48626;51.678;5.806;2023-07-02T12:10:52;29.00;99.90
62573;DHT22;48626;51.678;5.806;2023-07-02T12:13:17;28.90;99.90
62573;DHT22;48626;51.678;5.806;2023-07-02T12:15:43;29.50;99.90
62573;DHT22;48626;51.678;5.806;2023-07-02T12:18:09;29.20;99.90
62573;DHT22;48626;51.678;5.806;2023-07-02T12:20:35;28.40;99.90
62573;DHT22;48626;51.678;5.806;2023-07-02T12:23:01;27.70;99.90
62573;DHT22;48626;51.678;5.806;2023-07-02T12:25:26;27.10;99.90
62573;DHT22;48626;51.678;5.806;2023-07-02T12:27:52;27.00;99.90
62573;DHT22;48626;51.678;5.806;2023-07-02T12:30:18;27.60;99.90
62573;DHT22;48626;51.678;5.806;2023-07-02T12:32:44;28.60;99.90
62573;DHT22;48626;51.678;5.806;2023-07-02T12:35:11;29.30;99.90
62573;DHT22;48626;51.678;5.806;2023-07-02T12:37:48;29.60;99.90
62573;DHT22;48626;51.678;5.806;2023-07-02T12:40:14;30.50;99.90
62573;DHT22;48626;51.678;5.806;2023-07-02T12:42:44;31.20;99.90
62573;DHT22;48626;51.678;5.806;2023-07-02T12:45:10;31.40;99.90
62573;DHT22;48626;51.678;5.806;2023-07-02T12:47:40;30.40;99.90
62573;DHT22;48626;51.678;5.806;2023-07-02T12:50:07;29.40;99.90
62573;DHT22;48626;51.678;5.806;2023-07-02T12:52:33;28.60;99.90
62573;DHT22;48626;51.678;5.806;2023-07-02T12:54:59;27.90;99.90
62573;DHT22;48626;51.678;5.806;2023-07-02T12:57:25;27.50;99.90
62573;DHT22;48626;51.678;5.806;2023-07-02T12:59:55;28.70;99.90
62573;DHT22;48626;51.678;5.806;2023-07-02T13:02:21;29.10;99.90
62573;DHT22;48626;51.678;5.806;2023-07-02T13:04:48;28.70;99.90
62573;DHT22;48626;51.678;5.806;2023-07-02T13:07:13;29.60;99.90
62573;DHT22;48626;51.678;5.806;2023-07-02T13:09:39;30.00;99.90
62573;DHT22;48626;51.678;5.806;2023-07-02T13:12:05;30.60;99.90
62573;DHT22;48626;51.678;5.806;2023-07-02T13:14:31;31.40;99.90
62573;DHT22;48626;51.678;5.806;2023-07-02T13:16:57;31.50;99.90
62573;DHT22;48626;51.678;5.806;2023-07-02T13:19:24;32.10;99.90
62573;DHT22;48626;51.678;5.806;2023-07-02T13:21:50;31.50;99.90
62573;DHT22;48626;51.678;5.806;2023-07-02T13:24:16;31.20;99.90
62573;DHT22;48626;51.678;5.806;2023-07-02T13:26:41;30.80;99.90
62573;DHT22;48626;51.678;5.806;2023-07-02T13:29:07;30.10;99.90
62573;DHT22;48626;51.678;5.806;2023-07-02T13:31:33;29.70;99.90
62573;DHT22;48626;51.678;5.806;2023-07-02T13:33:58;30.60;99.90
62573;DHT22;48626;51.678;5.806;2023-07-02T13:36:24;31.30;99.90
62573;DHT22;48626;51.678;5.806;2023-07-02T13:38:50;31.60;99.90
62573;DHT22;48626;51.678;5.806;2023-07-02T13:41:16;31.60;99.90
62573;DHT22;48626;51.678;5.806;2023-07-02T13:43:41;31.60;99.90
62573;DHT22;48626;51.678;5.806;2023-07-02T13:46:07;31.90;99.90
62573;DHT22;48626;51.678;5.806;2023-07-02T13:48:32;31.80;99.90
62573;DHT22;48626;51.678;5.806;2023-07-02T13:51:00;31.30;99.90
62573;DHT22;48626;51.678;5.806;2023-07-02T13:53:26;30.50;99.90
62573;DHT22;48626;51.678;5.806;2023-07-02T13:55:51;30.50;99.90
62573;DHT22;48626;51.678;5.806;2023-07-02T13:58:17;30.20;99.90
62573;DHT22;48626;51.678;5.806;2023-07-02T14:00:42;29.70;99.90
62573;DHT22;48626;51.678;5.806;2023-07-02T14:03:08;30.30;99.90
62573;DHT22;48626;51.678;5.806;2023-07-02T14:05:34;30.00;99.90
62573;DHT22;48626;51.678;5.806;2023-07-02T14:07:59;30.30;99.90
62573;DHT22;48626;51.678;5.806;2023-07-02T14:10:25;31.10;99.90
62573;DHT22;48626;51.678;5.806;2023-07-02T14:12:53;31.80;99.90
62573;DHT22;48626;51.678;5.806;2023-07-02T14:15:19;31.80;99.90
62573;DHT22;48626;51.678;5.806;2023-07-02T14:17:44;31.30;99.90
62573;DHT22;48626;51.678;5.806;2023-07-02T14:20:10;31.20;99.90
62573;DHT22;48626;51.678;5.806;2023-07-02T14:22:36;31.50;99.90
62573;DHT22;48626;51.678;5.806;2023-07-02T14:25:02;31.60;99.90
62573;DHT22;48626;51.678;5.806;2023-07-02T14:27:27;32.50;99.90
62573;DHT22;48626;51.678;5.806;2023-07-02T14:29:53;33.40;99.90
62573;DHT22;48626;51.678;5.806;2023-07-02T14:32:19;33.30;99.90
62573;DHT22;48626;51.678;5.806;2023-07-02T14:34:44;32.50;99.90
62573;DHT22;48626;51.678;5.806;2023-07-02T14:37:10;31.70;99.90
62573;DHT22;48626;51.678;5.806;2023-07-02T14:39:36;32.30;99.90
62573;DHT22;48626;51.678;5.806;2023-07-02T14:42:02;33.10;99.90
62573;DHT22;48626;51.678;5.806;2023-07-02T14:44:28;33.20;99.90
62573;DHT22;48626;51.678;5.806;2023-07-02T14:46:53;32.90;99.90
62573;DHT22;48626;51.678;5.806;2023-07-02T14:49:20;33.50;99.90
62573;DHT22;48626;51.678;5.806;2023-07-02T14:51:46;34.10;99.90
62573;DHT22;48626;51.678;5.806;2023-07-02T14:54:12;34.70;99.90
62573;DHT22;48626;51.678;5.806;2023-07-02T14:56:40;34.40;99.90
62573;DHT22;48626;51.678;5.806;2023-07-02T14:59:06;34.40;99.90
62573;DHT22;48626;51.678;5.806;2023-07-02T15:01:33;33.80;99.90
62573;DHT22;48626;51.678;5.806;2023-07-02T15:03:58;34.10;99.90
62573;DHT22;48626;51.678;5.806;2023-07-02T15:06:24;34.70;99.90
62573;DHT22;48626;51.678;5.806;2023-07-02T15:08:50;35.30;99.90
62573;DHT22;48626;51.678;5.806;2023-07-02T15:11:17;35.70;99.90
62573;DHT22;48626;51.678;5.806;2023-07-02T15:13:43;35.40;99.90
62573;DHT22;48626;51.678;5.806;2023-07-02T15:16:10;35.30;99.90
62573;DHT22;48626;51.678;5.806;2023-07-02T15:18:36;35.60;99.90
62573;DHT22;48626;51.678;5.806;2023-07-02T15:21:02;35.60;99.90
62573;DHT22;48626;51.678;5.806;2023-07-02T15:23:28;35.30;99.90
62573;DHT22;48626;51.678;5.806;2023-07-02T15:25:59;35.60;99.90
62573;DHT22;48626;51.678;5.806;2023-07-02T15:28:26;36.10;99.90
62573;DHT22;48626;51.678;5.806;2023-07-02T15:30:57;36.50;99.90
62573;DHT22;48626;51.678;5.806;2023-07-02T15:33:23;36.50;99.90
62573;DHT22;48626;51.678;5.806;2023-07-02T15:35:49;36.60;99.90